Архив погоды в Ямске

Метеограмма Ямск
Четверг, 27 Июня
Время местн. Темп Ветер Видим Явления Облачность нижн/средн/верх Атм. давл. Влжн Точка росы ВНГО R Сост. почвы Tg s
Напр Скр Прв ур.ст ур.м изм
10:00 - +14.4° В,Ю-В 4 - - - - 745 751 -0.2 54% +5.2° - - - - -
07:00 +13.4° С-З 2 - 50 км - переменная облачность 745 751 -0.5 58% +5.3° - 0 Влажная (без луж) - -
04:00 - +14.4° С,С-В 6 - - - - 746 752 -1.1 44% +2.3° - - - - -
01:00 +13.8° С-В 5 - более 50 км - переменная облачность 747 753 -1.4 46% +2.3° 1.5 км - - - -
Среда, 26 Июня
Время местн. Темп Ветер Видим Явления Облачность нижн/средн/верх Атм. давл. Влжн Точка росы ВНГО R Сост. почвы Tg s
Напр Скр Прв ур.ст ур.м изм
22:00 - +12.4° С-З 2 - - - - 748 754 -0.9 64% +5.8° - - - - -
19:00 +9.5° С-З 4 - более 50 км - преимущественно облачно 749 755 -1.3 79% +6.1° 1.5 км 0 - - -
16:00 - +8.5° С 4 - - - - 751 757 -1.1 81% +5.5° - - - - -
13:00 +9.2° С 3 - 50 км - облачно с прояснениями 752 758 -1.5 83% +6.4° 1.5 км - - - -
10:00 - +9.1° В,Ю-В 4 - - - - 753 759 -0.7 80% +5.8° - - - - -
07:00 +6.7° В 6 - 50 км - облачно с прояснениями 754 760 -1.1 95% +5.9° 1.5 км 0 Сырая (есть малые или большие лужи) - -
04:00 - +4.1° С-В 2 - - - - 755 761 -1 99% +4° - - - - -
01:00 +3.1° С 3 - 50 км - облачно 756 762 -1.5 100% +3.1° 1 км - - - -
Вторник, 25 Июня
Время местн. Темп Ветер Видим Явления Облачность нижн/средн/верх Атм. давл. Влжн Точка росы ВНГО R Сост. почвы Tg s
Напр Скр Прв ур.ст ур.м изм
22:00 - +3.6° С 2 - - - - 758 764 -0.4 100% +3.6° - - - - -
19:00 +5.2° С 2 - более 50 км - облачно 758 764 -0.9 99% +5° 1 км 0 - - -
16:00 - +5.4° В,Ю-В 2 - - - - 759 765 -0.2 95% +4.7° - - - - -
13:00 +4.4° В,Ю-В 3 - 500 м туман неба не видно 759 766 -0.2 100% +4.4° - - - - -
10:00 - +4.6° В,Ю-В 5 - - - - 760 766 +0.1 100% +4.6° - - - - -
07:00 +4.1° В,Ю-В 4 - 500 м туман неба не видно 760 766 -0.2 100% +4.1° - 0 Сырая (есть малые или большие лужи) +5° -
04:00 - +3.7° В,Ю-В 2 - - - - 760 766 +0.2 100% +3.7° - - - - -
01:00 +4.7° С 2 - 0.5 км туман неба не видно 760 766 -0.2 100% +4.7° - - - - -
Понедельник, 24 Июня
Время местн. Темп Ветер Видим Явления Облачность нижн/средн/верх Атм. давл. Влжн Точка росы ВНГО R Сост. почвы Tg s
Напр Скр Прв ур.ст ур.м изм
22:00 - +4.8° С-З 5 - - - - 760 766 -0.2 100% +4.8° - - - - -
19:00 +5.3° С-З 6 - 500 м туман неба не видно 760 766 -0.2 100% +5.3° - 5 - - -
16:00 - +5.5° С-З 4 - - - - 760 766 -0.3 100% +5.5° - - - - -
13:00 +5.6° З,С-З 1 - 500 м умеренный или сильный ливневый дождь {туман} неба не видно 760 766 +0.2 100% +5.6° - - - - -
10:00 - +4.8° В,Ю-В 2 - - - - 760 766 +0.5 100% +4.8° - - - - -
07:00 +5.5° С-З 2 - 500 м слабый ливневый дождь {туман} неба не видно 760 766 +0.5 100% +5.5° - 2 Сырая (есть малые или большие лужи) +5° -